sensor_id;sensor_type;location;lat;lon;timestamp;pressure;altitude;pressure_sealevel;temperature;humidity
62779;BME280;48821;48.796;2.396;2023-10-13T00:00:46;101250.69;;;23.50;57.06
62779;BME280;48821;48.796;2.396;2023-10-13T00:01:59;101249.84;;;23.49;57.14
62779;BME280;48821;48.796;2.396;2023-10-13T00:03:10;101244.34;;;23.51;57.16
62779;BME280;48821;48.796;2.396;2023-10-13T00:04:32;101240.69;;;23.52;57.12
62779;BME280;48821;48.796;2.396;2023-10-13T00:05:45;101248.59;;;23.54;56.97
62779;BME280;48821;48.796;2.396;2023-10-13T00:06:56;101246.91;;;23.53;57.28
62779;BME280;48821;48.796;2.396;2023-10-13T00:08:08;101233.38;;;23.54;56.91
62779;BME280;48821;48.796;2.396;2023-10-13T00:09:19;101235.19;;;23.54;57.40
62779;BME280;48821;48.796;2.396;2023-10-13T00:10:35;101236.91;;;23.55;56.85
62779;BME280;48821;48.796;2.396;2023-10-13T00:11:47;101239.59;;;23.55;56.94
62779;BME280;48821;48.796;2.396;2023-10-13T00:12:57;101233.38;;;23.54;57.29
62779;BME280;48821;48.796;2.396;2023-10-13T00:14:26;101234.09;;;23.56;56.86
62779;BME280;48821;48.796;2.396;2023-10-13T00:15:48;101228.72;;;23.56;56.75
62779;BME280;48821;48.796;2.396;2023-10-13T00:17:07;101232.25;;;23.57;57.13
62779;BME280;48821;48.796;2.396;2023-10-13T00:18:19;101225.19;;;23.56;56.78
62779;BME280;48821;48.796;2.396;2023-10-13T00:19:31;101225.19;;;23.56;56.91
62779;BME280;48821;48.796;2.396;2023-10-13T00:20:57;101221.66;;;23.55;56.60
62779;BME280;48821;48.796;2.396;2023-10-13T00:22:08;101222.50;;;23.56;56.83
62779;BME280;48821;48.796;2.396;2023-10-13T00:23:19;101219.81;;;23.56;57.17
62779;BME280;48821;48.796;2.396;2023-10-13T00:24:32;101217.13;;;23.56;57.11
62779;BME280;48821;48.796;2.396;2023-10-13T00:25:50;101219.81;;;23.56;57.11
62779;BME280;48821;48.796;2.396;2023-10-13T00:27:01;101215.31;;;23.56;56.96
62779;BME280;48821;48.796;2.396;2023-10-13T00:28:15;101218.00;;;23.56;57.27
62779;BME280;48821;48.796;2.396;2023-10-13T00:29:33;101219.72;;;23.57;57.03
62779;BME280;48821;48.796;2.396;2023-10-13T00:30:47;101220.69;;;23.56;57.29
62779;BME280;48821;48.796;2.396;2023-10-13T00:32:06;101217.03;;;23.57;57.28
62779;BME280;48821;48.796;2.396;2023-10-13T00:33:22;101213.50;;;23.57;57.60
62779;BME280;48821;48.796;2.396;2023-10-13T00:34:34;101217.03;;;23.57;57.61
62779;BME280;48821;48.796;2.396;2023-10-13T00:35:50;101210.94;;;23.55;57.40
62779;BME280;48821;48.796;2.396;2023-10-13T00:37:03;101209.94;;;23.56;57.27
62779;BME280;48821;48.796;2.396;2023-10-13T00:38:28;101213.63;;;23.55;57.81
62779;BME280;48821;48.796;2.396;2023-10-13T00:39:39;101213.63;;;23.55;57.27
62779;BME280;48821;48.796;2.396;2023-10-13T00:40:56;101215.44;;;23.55;57.69
62779;BME280;48821;48.796;2.396;2023-10-13T00:42:15;101211.91;;;23.54;57.59
62779;BME280;48821;48.796;2.396;2023-10-13T00:43:44;101214.59;;;23.54;57.50
62779;BME280;48821;48.796;2.396;2023-10-13T00:44:56;101217.28;;;23.54;57.92
62779;BME280;48821;48.796;2.396;2023-10-13T00:46:06;101213.00;;;23.52;57.72
62779;BME280;48821;48.796;2.396;2023-10-13T00:47:18;101206.78;;;23.51;57.65
62779;BME280;48821;48.796;2.396;2023-10-13T00:48:48;101205.94;;;23.51;57.70
62779;BME280;48821;48.796;2.396;2023-10-13T00:50:05;101211.31;;;23.51;58.19
62779;BME280;48821;48.796;2.396;2023-10-13T00:51:15;101209.59;;;23.49;57.74
62779;BME280;48821;48.796;2.396;2023-10-13T00:52:35;101199.72;;;23.50;57.75
62779;BME280;48821;48.796;2.396;2023-10-13T00:53:47;101201.56;;;23.49;58.29
62779;BME280;48821;48.796;2.396;2023-10-13T00:54:59;101207.03;;;23.48;58.10
62779;BME280;48821;48.796;2.396;2023-10-13T00:56:10;101199.06;;;23.46;57.43
62779;BME280;48821;48.796;2.396;2023-10-13T00:57:32;101201.66;;;23.48;57.92
62779;BME280;48821;48.796;2.396;2023-10-13T00:58:45;101196.28;;;23.48;57.30
62779;BME280;48821;48.796;2.396;2023-10-13T01:00:04;101199.72;;;23.50;57.82
62779;BME280;48821;48.796;2.396;2023-10-13T01:01:29;101198.00;;;23.49;57.72
62779;BME280;48821;48.796;2.396;2023-10-13T01:02:45;101198.97;;;23.48;58.03
62779;BME280;48821;48.796;2.396;2023-10-13T01:04:04;101197.16;;;23.48;58.01
62779;BME280;48821;48.796;2.396;2023-10-13T01:05:19;101195.44;;;23.47;58.22
62779;BME280;48821;48.796;2.396;2023-10-13T01:06:31;101194.56;;;23.47;58.31
62779;BME280;48821;48.796;2.396;2023-10-13T01:07:42;101196.41;;;23.46;58.12
62779;BME280;48821;48.796;2.396;2023-10-13T01:10:10;101188.50;;;23.45;58.45
62779;BME280;48821;48.796;2.396;2023-10-13T01:11:25;101189.44;;;23.44;58.37
62779;BME280;48821;48.796;2.396;2023-10-13T01:12:37;101192.28;;;23.42;58.22
62779;BME280;48821;48.796;2.396;2023-10-13T01:13:49;101186.91;;;23.42;57.76
62779;BME280;48821;48.796;2.396;2023-10-13T01:15:02;101183.38;;;23.42;58.76
62779;BME280;48821;48.796;2.396;2023-10-13T01:16:22;101185.31;;;23.40;59.22
62779;BME280;48821;48.796;2.396;2023-10-13T01:17:37;101186.28;;;23.38;58.64
62779;BME280;48821;48.796;2.396;2023-10-13T01:18:50;101186.41;;;23.37;58.31
62779;BME280;48821;48.796;2.396;2023-10-13T01:20:00;101176.78;;;23.34;58.41
62779;BME280;48821;48.796;2.396;2023-10-13T01:21:11;101179.47;;;23.34;58.47
62779;BME280;48821;48.796;2.396;2023-10-13T01:22:25;101177.53;;;23.36;58.69
62779;BME280;48821;48.796;2.396;2023-10-13T01:23:38;101176.69;;;23.36;58.27
62779;BME280;48821;48.796;2.396;2023-10-13T01:24:52;101176.56;;;23.37;58.15
62779;BME280;48821;48.796;2.396;2023-10-13T01:26:15;101177.41;;;23.38;58.27
62779;BME280;48821;48.796;2.396;2023-10-13T01:27:36;101172.88;;;23.38;57.84
62779;BME280;48821;48.796;2.396;2023-10-13T01:28:48;101169.22;;;23.40;58.00
62779;BME280;48821;48.796;2.396;2023-10-13T01:30:00;101168.28;;;23.41;57.71
62779;BME280;48821;48.796;2.396;2023-10-13T01:31:16;101169.00;;;23.43;57.90
62779;BME280;48821;48.796;2.396;2023-10-13T01:32:40;101160.09;;;23.42;58.02
62779;BME280;48821;48.796;2.396;2023-10-13T01:33:56;101175.31;;;23.42;57.73
62779;BME280;48821;48.796;2.396;2023-10-13T01:35:08;101156.53;;;23.42;57.53
62779;BME280;48821;48.796;2.396;2023-10-13T01:36:23;101166.31;;;23.43;57.10
62779;BME280;48821;48.796;2.396;2023-10-13T01:37:36;101156.44;;;23.43;57.88
62779;BME280;48821;48.796;2.396;2023-10-13T01:38:47;101158.97;;;23.45;57.78
62779;BME280;48821;48.796;2.396;2023-10-13T01:39:58;101156.31;;;23.45;57.28
62779;BME280;48821;48.796;2.396;2023-10-13T01:41:09;101153.63;;;23.45;57.57
62779;BME280;48821;48.796;2.396;2023-10-13T01:42:20;101149.94;;;23.46;57.33
62779;BME280;48821;48.796;2.396;2023-10-13T01:43:31;101148.13;;;23.46;57.27
62779;BME280;48821;48.796;2.396;2023-10-13T01:44:42;101148.13;;;23.46;57.56
62779;BME280;48821;48.796;2.396;2023-10-13T01:45:53;101150.69;;;23.48;57.27
62779;BME280;48821;48.796;2.396;2023-10-13T01:47:04;101148.00;;;23.48;57.49
62779;BME280;48821;48.796;2.396;2023-10-13T01:48:19;101151.44;;;23.50;57.69
62779;BME280;48821;48.796;2.396;2023-10-13T01:49:35;101152.31;;;23.51;57.30
62779;BME280;48821;48.796;2.396;2023-10-13T01:50:56;101144.25;;;23.51;57.21
62779;BME280;48821;48.796;2.396;2023-10-13T01:52:10;101137.91;;;23.52;57.07
62779;BME280;48821;48.796;2.396;2023-10-13T01:53:22;101138.75;;;23.52;57.49
62779;BME280;48821;48.796;2.396;2023-10-13T01:54:33;101136.78;;;23.54;56.99
62779;BME280;48821;48.796;2.396;2023-10-13T01:55:44;101129.75;;;23.53;56.78
62779;BME280;48821;48.796;2.396;2023-10-13T01:56:55;101133.25;;;23.54;56.78
62779;BME280;48821;48.796;2.396;2023-10-13T01:58:06;101131.44;;;23.54;57.02
62779;BME280;48821;48.796;2.396;2023-10-13T01:59:24;101126.06;;;23.54;57.10
62779;BME280;48821;48.796;2.396;2023-10-13T02:00:37;101127.78;;;23.55;57.00
62779;BME280;48821;48.796;2.396;2023-10-13T02:01:52;101123.25;;;23.56;56.89
62779;BME280;48821;48.796;2.396;2023-10-13T02:03:07;101122.41;;;23.55;57.10
62779;BME280;48821;48.796;2.396;2023-10-13T02:04:24;101115.19;;;23.56;56.76
62779;BME280;48821;48.796;2.396;2023-10-13T02:05:35;101111.69;;;23.55;56.84
62779;BME280;48821;48.796;2.396;2023-10-13T02:06:49;101110.69;;;23.56;56.64
62779;BME280;48821;48.796;2.396;2023-10-13T02:08:02;101118.75;;;23.56;56.69
62779;BME280;48821;48.796;2.396;2023-10-13T02:09:13;101118.75;;;23.56;56.72
62779;BME280;48821;48.796;2.396;2023-10-13T02:10:24;101108.00;;;23.56;56.58
62779;BME280;48821;48.796;2.396;2023-10-13T02:11:39;101106.31;;;23.55;56.45
62779;BME280;48821;48.796;2.396;2023-10-13T02:12:49;101110.69;;;23.56;56.74
62779;BME280;48821;48.796;2.396;2023-10-13T02:14:06;101101.69;;;23.57;56.63
62779;BME280;48821;48.796;2.396;2023-10-13T02:15:16;101104.34;;;23.57;56.82
62779;BME280;48821;48.796;2.396;2023-10-13T02:16:40;101090.94;;;23.57;56.55
62779;BME280;48821;48.796;2.396;2023-10-13T02:17:51;101089.13;;;23.58;56.85
62779;BME280;48821;48.796;2.396;2023-10-13T02:19:02;101088.25;;;23.57;56.73
62779;BME280;48821;48.796;2.396;2023-10-13T02:20:15;101088.25;;;23.57;56.93
62779;BME280;48821;48.796;2.396;2023-10-13T02:21:27;101081.91;;;23.58;57.10
62779;BME280;48821;48.796;2.396;2023-10-13T02:22:42;101073.84;;;23.58;56.72
62779;BME280;48821;48.796;2.396;2023-10-13T02:24:02;101081.06;;;23.58;57.02
62779;BME280;48821;48.796;2.396;2023-10-13T02:25:19;101078.25;;;23.59;56.87
62779;BME280;48821;48.796;2.396;2023-10-13T02:26:48;101073.03;;;23.58;56.48
62779;BME280;48821;48.796;2.396;2023-10-13T02:27:59;101069.47;;;23.57;56.88
62779;BME280;48821;48.796;2.396;2023-10-13T02:29:10;101067.66;;;23.58;56.77
62779;BME280;48821;48.796;2.396;2023-10-13T02:30:24;101059.63;;;23.58;56.74
62779;BME280;48821;48.796;2.396;2023-10-13T02:31:37;101065.81;;;23.58;56.70
62779;BME280;48821;48.796;2.396;2023-10-13T02:32:48;101059.63;;;23.58;56.90
62779;BME280;48821;48.796;2.396;2023-10-13T02:33:58;101057.75;;;23.58;56.92
62779;BME280;48821;48.796;2.396;2023-10-13T02:35:10;101045.19;;;23.59;57.02
62779;BME280;48821;48.796;2.396;2023-10-13T02:36:25;101047.88;;;23.59;56.89
62779;BME280;48821;48.796;2.396;2023-10-13T02:37:47;101047.03;;;23.58;57.18
62779;BME280;48821;48.796;2.396;2023-10-13T02:39:07;101047.03;;;23.58;57.08
62779;BME280;48821;48.796;2.396;2023-10-13T02:40:18;101038.16;;;23.58;57.03
62779;BME280;48821;48.796;2.396;2023-10-13T02:41:34;101036.28;;;23.58;57.22
62779;BME280;48821;48.796;2.396;2023-10-13T02:42:48;101043.38;;;23.59;57.02
62779;BME280;48821;48.796;2.396;2023-10-13T02:43:58;101047.03;;;23.58;57.03
62779;BME280;48821;48.796;2.396;2023-10-13T02:45:09;101049.72;;;23.58;57.01
62779;BME280;48821;48.796;2.396;2023-10-13T02:46:23;101050.56;;;23.59;57.03
62779;BME280;48821;48.796;2.396;2023-10-13T02:47:36;101056.78;;;23.59;56.94
62779;BME280;48821;48.796;2.396;2023-10-13T02:48:50;101053.25;;;23.59;56.91
62779;BME280;48821;48.796;2.396;2023-10-13T02:50:06;101054.97;;;23.60;56.88
62779;BME280;48821;48.796;2.396;2023-10-13T02:51:23;101046.06;;;23.59;57.06
62779;BME280;48821;48.796;2.396;2023-10-13T02:52:45;101057.66;;;23.60;56.57
62779;BME280;48821;48.796;2.396;2023-10-13T02:53:59;101056.78;;;23.59;56.41
62779;BME280;48821;48.796;2.396;2023-10-13T02:55:13;101055.81;;;23.60;56.80
62779;BME280;48821;48.796;2.396;2023-10-13T02:56:27;101051.28;;;23.61;56.45
62779;BME280;48821;48.796;2.396;2023-10-13T02:57:37;101039.72;;;23.60;56.47
62779;BME280;48821;48.796;2.396;2023-10-13T02:58:50;101042.28;;;23.62;56.69
62779;BME280;48821;48.796;2.396;2023-10-13T03:00:05;101041.41;;;23.62;56.87
62779;BME280;48821;48.796;2.396;2023-10-13T03:01:27;101034.47;;;23.59;56.89
62779;BME280;48821;48.796;2.396;2023-10-13T03:02:39;101032.66;;;23.59;56.50
62779;BME280;48821;48.796;2.396;2023-10-13T03:03:56;101031.78;;;23.59;57.03
62779;BME280;48821;48.796;2.396;2023-10-13T03:05:08;101032.66;;;23.59;57.02
62779;BME280;48821;48.796;2.396;2023-10-13T03:06:21;101028.13;;;23.60;56.70
62779;BME280;48821;48.796;2.396;2023-10-13T03:07:33;101033.63;;;23.58;56.87
62779;BME280;48821;48.796;2.396;2023-10-13T03:08:46;101037.03;;;23.60;56.52
62779;BME280;48821;48.796;2.396;2023-10-13T03:09:58;101038.88;;;23.60;57.24
62779;BME280;48821;48.796;2.396;2023-10-13T03:11:10;101038.00;;;23.59;57.70
62779;BME280;48821;48.796;2.396;2023-10-13T03:12:23;101036.44;;;23.57;57.26
62779;BME280;48821;48.796;2.396;2023-10-13T03:13:34;101035.72;;;23.55;58.17
62779;BME280;48821;48.796;2.396;2023-10-13T03:14:45;101031.47;;;23.52;57.35
62779;BME280;48821;48.796;2.396;2023-10-13T03:16:10;101022.69;;;23.50;57.66
62779;BME280;48821;48.796;2.396;2023-10-13T03:17:21;101017.44;;;23.48;57.45
62779;BME280;48821;48.796;2.396;2023-10-13T03:18:44;101027.31;;;23.48;58.25
62779;BME280;48821;48.796;2.396;2023-10-13T03:20:10;101014.16;;;23.45;58.45
62779;BME280;48821;48.796;2.396;2023-10-13T03:21:25;101026.84;;;23.43;57.81
62779;BME280;48821;48.796;2.396;2023-10-13T03:22:40;101019.78;;;23.42;57.38
62779;BME280;48821;48.796;2.396;2023-10-13T03:23:51;101018.09;;;23.41;57.71
62779;BME280;48821;48.796;2.396;2023-10-13T03:25:04;101016.38;;;23.40;58.10
62779;BME280;48821;48.796;2.396;2023-10-13T03:26:16;101012.09;;;23.37;57.75
62779;BME280;48821;48.796;2.396;2023-10-13T03:27:30;101010.28;;;23.37;58.32
62779;BME280;48821;48.796;2.396;2023-10-13T03:28:51;101012.97;;;23.37;57.77
62779;BME280;48821;48.796;2.396;2023-10-13T03:30:02;101011.16;;;23.38;57.74
62779;BME280;48821;48.796;2.396;2023-10-13T03:31:20;101015.66;;;23.37;57.77
62779;BME280;48821;48.796;2.396;2023-10-13T03:32:37;101013.69;;;23.40;57.62
62779;BME280;48821;48.796;2.396;2023-10-13T03:33:56;101002.97;;;23.40;57.62
62779;BME280;48821;48.796;2.396;2023-10-13T03:35:10;100996.63;;;23.41;57.63
62779;BME280;48821;48.796;2.396;2023-10-13T03:36:25;101001.13;;;23.40;57.51
62779;BME280;48821;48.796;2.396;2023-10-13T03:37:54;101000.13;;;23.41;57.67
62779;BME280;48821;48.796;2.396;2023-10-13T03:39:08;100999.16;;;23.42;57.58
62779;BME280;48821;48.796;2.396;2023-10-13T03:40:21;100998.19;;;23.43;57.08
62779;BME280;48821;48.796;2.396;2023-10-13T03:41:32;100991.84;;;23.44;57.43
62779;BME280;48821;48.796;2.396;2023-10-13T03:42:43;100997.19;;;23.44;57.64
62779;BME280;48821;48.796;2.396;2023-10-13T03:44:01;100993.56;;;23.45;57.46
62779;BME280;48821;48.796;2.396;2023-10-13T03:45:24;100993.56;;;23.45;57.50
62779;BME280;48821;48.796;2.396;2023-10-13T03:46:37;100990.97;;;23.44;57.92
62779;BME280;48821;48.796;2.396;2023-10-13T03:47:53;100995.53;;;23.43;57.47
62779;BME280;48821;48.796;2.396;2023-10-13T03:49:05;100989.28;;;23.43;57.69
62779;BME280;48821;48.796;2.396;2023-10-13T03:50:16;100989.28;;;23.43;57.78
62779;BME280;48821;48.796;2.396;2023-10-13T03:51:27;100980.25;;;23.44;57.43
62779;BME280;48821;48.796;2.396;2023-10-13T03:52:45;100981.25;;;23.43;57.55
62779;BME280;48821;48.796;2.396;2023-10-13T03:53:55;100976.59;;;23.45;57.27
62779;BME280;48821;48.796;2.396;2023-10-13T03:55:07;100974.78;;;23.45;57.70
62779;BME280;48821;48.796;2.396;2023-10-13T03:56:22;100975.59;;;23.46;56.97
62779;BME280;48821;48.796;2.396;2023-10-13T03:57:48;100975.59;;;23.46;57.18
62779;BME280;48821;48.796;2.396;2023-10-13T03:59:00;100981.97;;;23.45;57.45
62779;BME280;48821;48.796;2.396;2023-10-13T04:00:21;100974.63;;;23.47;57.20
62779;BME280;48821;48.796;2.396;2023-10-13T04:01:37;100980.00;;;23.47;57.16
62779;BME280;48821;48.796;2.396;2023-10-13T04:02:53;100971.00;;;23.48;57.07
62779;BME280;48821;48.796;2.396;2023-10-13T04:04:16;100964.78;;;23.47;57.33
62779;BME280;48821;48.796;2.396;2023-10-13T04:05:44;100970.13;;;23.47;57.46
62779;BME280;48821;48.796;2.396;2023-10-13T04:07:11;100968.31;;;23.48;57.03
62779;BME280;48821;48.796;2.396;2023-10-13T04:08:22;100963.91;;;23.47;57.19
62779;BME280;48821;48.796;2.396;2023-10-13T04:09:39;100969.28;;;23.47;57.54
62779;BME280;48821;48.796;2.396;2023-10-13T04:10:51;100964.78;;;23.47;57.43
62779;BME280;48821;48.796;2.396;2023-10-13T04:12:04;100964.66;;;23.49;56.85
62779;BME280;48821;48.796;2.396;2023-10-13T04:13:14;100959.28;;;23.49;57.12
62779;BME280;48821;48.796;2.396;2023-10-13T04:14:45;100963.69;;;23.50;57.01
62779;BME280;48821;48.796;2.396;2023-10-13T04:16:14;100961.97;;;23.49;56.85
62779;BME280;48821;48.796;2.396;2023-10-13T04:17:33;100961.22;;;23.47;57.29
62779;BME280;48821;48.796;2.396;2023-10-13T04:18:56;100958.53;;;23.47;57.24
62779;BME280;48821;48.796;2.396;2023-10-13T04:20:09;100954.16;;;23.46;57.02
62779;BME280;48821;48.796;2.396;2023-10-13T04:21:22;100960.25;;;23.48;57.21
62779;BME280;48821;48.796;2.396;2023-10-13T04:22:51;100954.16;;;23.46;57.22
62779;BME280;48821;48.796;2.396;2023-10-13T04:24:02;100952.31;;;23.46;57.06
62779;BME280;48821;48.796;2.396;2023-10-13T04:25:23;100948.94;;;23.44;57.20
62779;BME280;48821;48.796;2.396;2023-10-13T04:26:50;100951.75;;;23.43;57.18
62779;BME280;48821;48.796;2.396;2023-10-13T04:28:22;100946.38;;;23.43;56.95
62779;BME280;48821;48.796;2.396;2023-10-13T04:29:45;100948.34;;;23.41;57.01
62779;BME280;48821;48.796;2.396;2023-10-13T04:31:20;100942.25;;;23.38;56.95
62779;BME280;48821;48.796;2.396;2023-10-13T04:32:51;100942.25;;;23.38;56.77
62779;BME280;48821;48.796;2.396;2023-10-13T04:34:22;100941.28;;;23.40;56.96
62779;BME280;48821;48.796;2.396;2023-10-13T04:35:38;100930.56;;;23.40;57.02
62779;BME280;48821;48.796;2.396;2023-10-13T04:36:58;100931.53;;;23.38;56.94
62779;BME280;48821;48.796;2.396;2023-10-13T04:38:29;100934.19;;;23.38;56.98
62779;BME280;48821;48.796;2.396;2023-10-13T04:40:02;100930.56;;;23.40;57.27
62779;BME280;48821;48.796;2.396;2023-10-13T04:41:37;100929.69;;;23.39;57.00
62779;BME280;48821;48.796;2.396;2023-10-13T04:43:07;100923.38;;;23.40;56.79
62779;BME280;48821;48.796;2.396;2023-10-13T04:44:36;100930.41;;;23.41;56.93
62779;BME280;48821;48.796;2.396;2023-10-13T04:46:02;100923.38;;;23.40;56.80
62779;BME280;48821;48.796;2.396;2023-10-13T04:47:36;100929.59;;;23.41;56.97
62779;BME280;48821;48.796;2.396;2023-10-13T04:48:55;100919.81;;;23.40;56.49
62779;BME280;48821;48.796;2.396;2023-10-13T04:50:10;100914.47;;;23.40;56.59
62779;BME280;48821;48.796;2.396;2023-10-13T04:51:32;100910.06;;;23.38;56.59
62779;BME280;48821;48.796;2.396;2023-10-13T04:53:15;100905.56;;;23.39;56.46
62779;BME280;48821;48.796;2.396;2023-10-13T04:54:44;100907.28;;;23.40;56.54
62779;BME280;48821;48.796;2.396;2023-10-13T04:55:57;100905.44;;;23.41;56.66
62779;BME280;48821;48.796;2.396;2023-10-13T04:57:28;100904.44;;;23.42;56.45
62779;BME280;48821;48.796;2.396;2023-10-13T04:59:00;100901.75;;;23.42;56.64
62779;BME280;48821;48.796;2.396;2023-10-13T05:00:30;100905.44;;;23.41;56.77
62779;BME280;48821;48.796;2.396;2023-10-13T05:02:06;100905.56;;;23.39;56.63
62779;BME280;48821;48.796;2.396;2023-10-13T05:03:38;100904.69;;;23.38;56.23
62779;BME280;48821;48.796;2.396;2023-10-13T05:05:14;100898.38;;;23.40;56.03
62779;BME280;48821;48.796;2.396;2023-10-13T05:06:27;100901.06;;;23.40;56.37
62779;BME280;48821;48.796;2.396;2023-10-13T05:07:59;100894.84;;;23.39;56.43
62779;BME280;48821;48.796;2.396;2023-10-13T05:09:28;100894.84;;;23.39;56.38
62779;BME280;48821;48.796;2.396;2023-10-13T05:11:04;100893.88;;;23.40;56.09
62779;BME280;48821;48.796;2.396;2023-10-13T05:12:33;100888.50;;;23.40;56.34
62779;BME280;48821;48.796;2.396;2023-10-13T05:14:02;100890.31;;;23.40;56.12
62779;BME280;48821;48.796;2.396;2023-10-13T05:15:34;100875.22;;;23.38;56.35
62779;BME280;48821;48.796;2.396;2023-10-13T05:17:05;100870.69;;;23.39;56.38
62779;BME280;48821;48.796;2.396;2023-10-13T05:18:35;100871.56;;;23.40;56.48
62779;BME280;48821;48.796;2.396;2023-10-13T05:20:06;100864.38;;;23.40;56.41
62779;BME280;48821;48.796;2.396;2023-10-13T05:21:36;100861.69;;;23.40;55.96
62779;BME280;48821;48.796;2.396;2023-10-13T05:23:08;100861.69;;;23.40;56.02
62779;BME280;48821;48.796;2.396;2023-10-13T05:24:37;100851.81;;;23.41;56.01
62779;BME280;48821;48.796;2.396;2023-10-13T05:26:06;100841.91;;;23.41;56.09
62779;BME280;48821;48.796;2.396;2023-10-13T05:27:35;100843.78;;;23.41;55.78
62779;BME280;48821;48.796;2.396;2023-10-13T05:29:07;100843.63;;;23.42;56.13
62779;BME280;48821;48.796;2.396;2023-10-13T05:30:36;100842.78;;;23.42;55.76
62779;BME280;48821;48.796;2.396;2023-10-13T05:32:06;100839.97;;;23.43;56.25
62779;BME280;48821;48.796;2.396;2023-10-13T05:33:35;100835.72;;;23.41;55.95
62779;BME280;48821;48.796;2.396;2023-10-13T05:35:07;100848.13;;;23.42;55.72
62779;BME280;48821;48.796;2.396;2023-10-13T05:36:39;100855.22;;;23.43;55.74
62779;BME280;48821;48.796;2.396;2023-10-13T05:38:08;100849.00;;;23.42;55.88
62779;BME280;48821;48.796;2.396;2023-10-13T05:39:37;100849.84;;;23.43;55.57
62779;BME280;48821;48.796;2.396;2023-10-13T05:41:06;100855.22;;;23.43;55.81
62779;BME280;48821;48.796;2.396;2023-10-13T05:42:35;100859.56;;;23.44;55.51
62779;BME280;48821;48.796;2.396;2023-10-13T05:44:04;100854.22;;;23.44;55.67
62779;BME280;48821;48.796;2.396;2023-10-13T05:45:35;100856.88;;;23.44;55.69
62779;BME280;48821;48.796;2.396;2023-10-13T05:47:08;100861.28;;;23.45;55.50
62779;BME280;48821;48.796;2.396;2023-10-13T05:48:39;100864.81;;;23.45;55.42
62779;BME280;48821;48.796;2.396;2023-10-13T05:50:11;100859.47;;;23.45;55.92
62779;BME280;48821;48.796;2.396;2023-10-13T05:51:32;100854.91;;;23.46;55.55
62779;BME280;48821;48.796;2.396;2023-10-13T05:52:49;100862.84;;;23.47;55.32
62779;BME280;48821;48.796;2.396;2023-10-13T05:54:06;100855.78;;;23.46;55.41
62779;BME280;48821;48.796;2.396;2023-10-13T05:55:26;100856.63;;;23.47;55.03
62779;BME280;48821;48.796;2.396;2023-10-13T05:56:56;100861.03;;;23.48;55.14
62779;BME280;48821;48.796;2.396;2023-10-13T05:58:25;100858.47;;;23.46;55.05
62779;BME280;48821;48.796;2.396;2023-10-13T05:59:54;100864.69;;;23.47;55.11
62779;BME280;48821;48.796;2.396;2023-10-13T06:01:28;100867.50;;;23.45;55.55
62779;BME280;48821;48.796;2.396;2023-10-13T06:02:59;100878.94;;;23.47;54.54
62779;BME280;48821;48.796;2.396;2023-10-13T06:04:29;100864.69;;;23.47;54.87
62779;BME280;48821;48.796;2.396;2023-10-13T06:05:58;100839.69;;;23.46;55.12
62779;BME280;48821;48.796;2.396;2023-10-13T06:07:28;100829.81;;;23.47;55.44
62779;BME280;48821;48.796;2.396;2023-10-13T06:08:57;100814.69;;;23.46;55.19
62779;BME280;48821;48.796;2.396;2023-10-13T06:10:26;100798.59;;;23.46;55.31
62779;BME280;48821;48.796;2.396;2023-10-13T06:11:55;100817.38;;;23.46;55.64
62779;BME280;48821;48.796;2.396;2023-10-13T06:13:24;100817.38;;;23.46;55.45
62779;BME280;48821;48.796;2.396;2023-10-13T06:14:54;100835.31;;;23.45;55.20
62779;BME280;48821;48.796;2.396;2023-10-13T06:16:23;100844.19;;;23.46;55.34
62779;BME280;48821;48.796;2.396;2023-10-13T06:17:53;100841.50;;;23.46;55.52
62779;BME280;48821;48.796;2.396;2023-10-13T06:19:22;100846.88;;;23.46;55.34
62779;BME280;48821;48.796;2.396;2023-10-13T06:20:51;100844.19;;;23.46;55.07
62779;BME280;48821;48.796;2.396;2023-10-13T06:22:24;100846.88;;;23.46;55.11
62779;BME280;48821;48.796;2.396;2023-10-13T06:23:56;100845.19;;;23.45;55.15
62779;BME280;48821;48.796;2.396;2023-10-13T06:25:26;100853.09;;;23.46;55.44
62779;BME280;48821;48.796;2.396;2023-10-13T06:26:56;100855.91;;;23.45;55.17
62779;BME280;48821;48.796;2.396;2023-10-13T06:28:25;100848.72;;;23.45;55.20
62779;BME280;48821;48.796;2.396;2023-10-13T06:29:52;100860.28;;;23.46;55.10
62779;BME280;48821;48.796;2.396;2023-10-13T06:31:07;100855.78;;;23.46;55.03
62779;BME280;48821;48.796;2.396;2023-10-13T06:32:23;100847.72;;;23.46;55.25
62779;BME280;48821;48.796;2.396;2023-10-13T06:33:36;100855.78;;;23.46;55.38
62779;BME280;48821;48.796;2.396;2023-10-13T06:34:55;100853.94;;;23.47;55.04
62779;BME280;48821;48.796;2.396;2023-10-13T06:36:08;100854.09;;;23.45;54.94
62779;BME280;48821;48.796;2.396;2023-10-13T06:37:20;100847.88;;;23.45;55.18
62779;BME280;48821;48.796;2.396;2023-10-13T06:38:40;100853.38;;;23.43;55.25
62779;BME280;48821;48.796;2.396;2023-10-13T06:39:55;100849.84;;;23.43;54.65
62779;BME280;48821;48.796;2.396;2023-10-13T06:41:14;100852.53;;;23.43;55.24
62779;BME280;48821;48.796;2.396;2023-10-13T06:42:40;100853.50;;;23.42;54.95
62779;BME280;48821;48.796;2.396;2023-10-13T06:43:54;100849.84;;;23.43;55.06
62779;BME280;48821;48.796;2.396;2023-10-13T06:45:11;100850.81;;;23.42;54.81
62779;BME280;48821;48.796;2.396;2023-10-13T06:46:23;100856.06;;;23.43;55.14
62779;BME280;48821;48.796;2.396;2023-10-13T06:47:35;100851.53;;;23.44;54.90
62779;BME280;48821;48.796;2.396;2023-10-13T06:48:53;100844.34;;;23.44;55.41
62779;BME280;48821;48.796;2.396;2023-10-13T06:50:05;100847.03;;;23.44;55.03
62779;BME280;48821;48.796;2.396;2023-10-13T06:51:17;100845.03;;;23.46;54.99
62779;BME280;48821;48.796;2.396;2023-10-13T06:52:36;100845.03;;;23.46;54.62
62779;BME280;48821;48.796;2.396;2023-10-13T06:53:48;100840.53;;;23.47;54.83